sensor_id;sensor_type;location;lat;lon;timestamp;P1;durP1;ratioP1;P2;durP2;ratioP2
44850;SDS011;30583;48.714;9.386;2022-12-18T00:03:53;71.97;;;34.10;;
44850;SDS011;30583;48.714;9.386;2022-12-18T00:06:20;74.03;;;32.08;;
44850;SDS011;30583;48.714;9.386;2022-12-18T00:08:47;68.43;;;33.67;;
44850;SDS011;30583;48.714;9.386;2022-12-18T00:11:13;72.40;;;34.38;;
44850;SDS011;30583;48.714;9.386;2022-12-18T00:13:41;75.55;;;36.08;;
44850;SDS011;30583;48.714;9.386;2022-12-18T00:16:08;79.30;;;35.17;;
44850;SDS011;30583;48.714;9.386;2022-12-18T00:18:36;76.00;;;37.75;;
44850;SDS011;30583;48.714;9.386;2022-12-18T00:21:02;76.85;;;34.22;;
44850;SDS011;30583;48.714;9.386;2022-12-18T00:23:30;75.38;;;33.17;;
44850;SDS011;30583;48.714;9.386;2022-12-18T00:26:04;71.75;;;32.30;;
44850;SDS011;30583;48.714;9.386;2022-12-18T00:28:31;77.97;;;32.78;;
44850;SDS011;30583;48.714;9.386;2022-12-18T00:31:03;78.10;;;33.28;;
44850;SDS011;30583;48.714;9.386;2022-12-18T00:33:31;82.32;;;33.53;;
44850;SDS011;30583;48.714;9.386;2022-12-18T00:36:00;82.05;;;32.80;;
44850;SDS011;30583;48.714;9.386;2022-12-18T00:38:30;75.95;;;32.60;;
44850;SDS011;30583;48.714;9.386;2022-12-18T00:40:56;74.00;;;31.92;;
44850;SDS011;30583;48.714;9.386;2022-12-18T00:43:21;83.10;;;34.35;;
44850;SDS011;30583;48.714;9.386;2022-12-18T00:45:47;81.55;;;33.70;;
44850;SDS011;30583;48.714;9.386;2022-12-18T00:48:13;80.43;;;32.95;;
44850;SDS011;30583;48.714;9.386;2022-12-18T00:50:38;75.35;;;31.55;;
44850;SDS011;30583;48.714;9.386;2022-12-18T00:53:04;69.85;;;29.05;;
44850;SDS011;30583;48.714;9.386;2022-12-18T00:55:29;75.60;;;30.73;;
44850;SDS011;30583;48.714;9.386;2022-12-18T00:57:55;77.25;;;30.70;;
44850;SDS011;30583;48.714;9.386;2022-12-18T01:00:21;70.15;;;29.83;;
44850;SDS011;30583;48.714;9.386;2022-12-18T01:02:47;70.25;;;29.70;;
44850;SDS011;30583;48.714;9.386;2022-12-18T01:05:13;70.60;;;29.70;;
44850;SDS011;30583;48.714;9.386;2022-12-18T01:07:39;71.63;;;28.35;;
44850;SDS011;30583;48.714;9.386;2022-12-18T01:10:04;74.55;;;30.98;;
44850;SDS011;30583;48.714;9.386;2022-12-18T01:12:32;77.10;;;29.85;;
44850;SDS011;30583;48.714;9.386;2022-12-18T01:14:58;74.85;;;31.63;;
44850;SDS011;30583;48.714;9.386;2022-12-18T01:17:23;70.95;;;28.55;;
44850;SDS011;30583;48.714;9.386;2022-12-18T01:19:49;70.78;;;29.42;;
44850;SDS011;30583;48.714;9.386;2022-12-18T01:22:14;67.70;;;28.50;;
44850;SDS011;30583;48.714;9.386;2022-12-18T01:24:40;65.15;;;28.35;;
44850;SDS011;30583;48.714;9.386;2022-12-18T01:27:06;62.75;;;27.65;;
44850;SDS011;30583;48.714;9.386;2022-12-18T01:29:31;72.28;;;28.38;;
44850;SDS011;30583;48.714;9.386;2022-12-18T01:31:57;63.45;;;26.50;;
44850;SDS011;30583;48.714;9.386;2022-12-18T01:34:23;70.85;;;26.90;;
44850;SDS011;30583;48.714;9.386;2022-12-18T01:36:49;68.03;;;26.80;;
44850;SDS011;30583;48.714;9.386;2022-12-18T01:39:17;66.63;;;27.83;;
44850;SDS011;30583;48.714;9.386;2022-12-18T01:41:43;65.60;;;26.83;;
44850;SDS011;30583;48.714;9.386;2022-12-18T01:47:15;60.90;;;27.23;;
44850;SDS011;30583;48.714;9.386;2022-12-18T01:49:49;62.80;;;26.55;;
44850;SDS011;30583;48.714;9.386;2022-12-18T01:52:15;67.40;;;27.27;;
44850;SDS011;30583;48.714;9.386;2022-12-18T01:54:42;67.78;;;26.88;;
44850;SDS011;30583;48.714;9.386;2022-12-18T01:57:09;67.63;;;28.48;;
44850;SDS011;30583;48.714;9.386;2022-12-18T01:59:34;64.53;;;26.88;;
44850;SDS011;30583;48.714;9.386;2022-12-18T02:02:01;69.72;;;28.70;;
44850;SDS011;30583;48.714;9.386;2022-12-18T02:04:28;66.68;;;27.08;;
44850;SDS011;30583;48.714;9.386;2022-12-18T02:07:17;69.68;;;28.33;;
44850;SDS011;30583;48.714;9.386;2022-12-18T02:12:25;71.35;;;27.10;;
44850;SDS011;30583;48.714;9.386;2022-12-18T02:17:36;64.60;;;26.90;;
44850;SDS011;30583;48.714;9.386;2022-12-18T02:27:56;66.45;;;27.77;;
44850;SDS011;30583;48.714;9.386;2022-12-18T02:30:26;65.40;;;27.58;;
44850;SDS011;30583;48.714;9.386;2022-12-18T02:32:54;63.15;;;25.63;;
44850;SDS011;30583;48.714;9.386;2022-12-18T02:35:23;62.08;;;26.50;;
44850;SDS011;30583;48.714;9.386;2022-12-18T02:37:51;63.33;;;25.10;;
44850;SDS011;30583;48.714;9.386;2022-12-18T02:40:18;65.68;;;26.63;;
44850;SDS011;30583;48.714;9.386;2022-12-18T02:42:45;60.95;;;24.88;;
44850;SDS011;30583;48.714;9.386;2022-12-18T02:45:11;57.78;;;25.90;;
44850;SDS011;30583;48.714;9.386;2022-12-18T02:47:38;64.43;;;25.35;;
44850;SDS011;30583;48.714;9.386;2022-12-18T02:50:14;69.18;;;27.40;;
44850;SDS011;30583;48.714;9.386;2022-12-18T02:58:12;63.05;;;26.20;;
44850;SDS011;30583;48.714;9.386;2022-12-18T03:00:51;67.25;;;26.10;;
44850;SDS011;30583;48.714;9.386;2022-12-18T03:03:33;68.10;;;28.60;;
44850;SDS011;30583;48.714;9.386;2022-12-18T03:09:02;65.35;;;27.70;;
44850;SDS011;30583;48.714;9.386;2022-12-18T03:11:34;60.85;;;27.08;;
44850;SDS011;30583;48.714;9.386;2022-12-18T03:14:21;71.55;;;26.75;;
44850;SDS011;30583;48.714;9.386;2022-12-18T03:16:51;66.43;;;28.33;;
44850;SDS011;30583;48.714;9.386;2022-12-18T03:19:21;63.00;;;26.25;;
44850;SDS011;30583;48.714;9.386;2022-12-18T03:21:52;63.60;;;25.25;;
44850;SDS011;30583;48.714;9.386;2022-12-18T03:24:20;58.92;;;25.08;;
44850;SDS011;30583;48.714;9.386;2022-12-18T03:26:48;62.45;;;24.20;;
44850;SDS011;30583;48.714;9.386;2022-12-18T03:29:19;62.67;;;26.55;;
44850;SDS011;30583;48.714;9.386;2022-12-18T03:31:51;60.25;;;25.63;;
44850;SDS011;30583;48.714;9.386;2022-12-18T03:34:28;61.28;;;24.15;;
44850;SDS011;30583;48.714;9.386;2022-12-18T03:36:56;63.13;;;25.73;;
44850;SDS011;30583;48.714;9.386;2022-12-18T03:39:22;60.38;;;25.02;;
44850;SDS011;30583;48.714;9.386;2022-12-18T03:41:55;56.90;;;24.00;;
44850;SDS011;30583;48.714;9.386;2022-12-18T03:47:30;54.33;;;24.20;;
44850;SDS011;30583;48.714;9.386;2022-12-18T03:52:42;53.97;;;23.25;;
44850;SDS011;30583;48.714;9.386;2022-12-18T03:55:28;57.08;;;25.50;;
44850;SDS011;30583;48.714;9.386;2022-12-18T03:57:58;53.72;;;23.90;;
44850;SDS011;30583;48.714;9.386;2022-12-18T04:00:26;60.35;;;25.17;;
44850;SDS011;30583;48.714;9.386;2022-12-18T04:02:54;46.35;;;22.85;;
44850;SDS011;30583;48.714;9.386;2022-12-18T04:05:21;58.58;;;24.13;;
44850;SDS011;30583;48.714;9.386;2022-12-18T04:07:49;57.63;;;24.52;;
44850;SDS011;30583;48.714;9.386;2022-12-18T04:10:17;57.70;;;23.15;;
44850;SDS011;30583;48.714;9.386;2022-12-18T04:12:43;58.13;;;24.77;;
44850;SDS011;30583;48.714;9.386;2022-12-18T04:15:09;52.70;;;23.85;;
44850;SDS011;30583;48.714;9.386;2022-12-18T04:17:36;50.17;;;23.33;;
44850;SDS011;30583;48.714;9.386;2022-12-18T04:20:03;55.67;;;21.92;;
44850;SDS011;30583;48.714;9.386;2022-12-18T04:22:29;54.72;;;22.83;;
44850;SDS011;30583;48.714;9.386;2022-12-18T04:24:54;52.35;;;23.13;;
44850;SDS011;30583;48.714;9.386;2022-12-18T04:27:20;54.20;;;23.02;;
44850;SDS011;30583;48.714;9.386;2022-12-18T04:29:46;57.78;;;25.10;;
44850;SDS011;30583;48.714;9.386;2022-12-18T04:32:11;53.13;;;23.35;;
44850;SDS011;30583;48.714;9.386;2022-12-18T04:34:37;57.80;;;24.30;;
44850;SDS011;30583;48.714;9.386;2022-12-18T04:37:02;55.63;;;22.73;;
44850;SDS011;30583;48.714;9.386;2022-12-18T04:39:28;58.92;;;24.13;;
44850;SDS011;30583;48.714;9.386;2022-12-18T04:41:53;54.25;;;24.38;;
44850;SDS011;30583;48.714;9.386;2022-12-18T04:44:19;56.70;;;24.88;;
44850;SDS011;30583;48.714;9.386;2022-12-18T04:46:44;57.40;;;24.85;;
44850;SDS011;30583;48.714;9.386;2022-12-18T04:49:10;56.72;;;24.95;;
44850;SDS011;30583;48.714;9.386;2022-12-18T04:51:36;56.38;;;23.95;;
44850;SDS011;30583;48.714;9.386;2022-12-18T04:54:02;60.20;;;26.48;;
44850;SDS011;30583;48.714;9.386;2022-12-18T04:56:27;53.60;;;25.00;;
44850;SDS011;30583;48.714;9.386;2022-12-18T04:58:53;53.05;;;23.92;;
44850;SDS011;30583;48.714;9.386;2022-12-18T05:01:19;56.03;;;24.70;;
44850;SDS011;30583;48.714;9.386;2022-12-18T05:03:44;58.08;;;24.08;;
44850;SDS011;30583;48.714;9.386;2022-12-18T05:06:10;52.92;;;24.35;;
44850;SDS011;30583;48.714;9.386;2022-12-18T05:08:36;57.33;;;25.15;;
44850;SDS011;30583;48.714;9.386;2022-12-18T05:11:02;57.22;;;24.33;;
44850;SDS011;30583;48.714;9.386;2022-12-18T05:13:30;53.63;;;24.00;;
44850;SDS011;30583;48.714;9.386;2022-12-18T05:15:56;53.75;;;23.42;;
44850;SDS011;30583;48.714;9.386;2022-12-18T05:18:22;54.78;;;23.80;;
44850;SDS011;30583;48.714;9.386;2022-12-18T05:20:49;56.65;;;23.88;;
44850;SDS011;30583;48.714;9.386;2022-12-18T05:23:15;55.25;;;24.55;;
44850;SDS011;30583;48.714;9.386;2022-12-18T05:25:41;52.08;;;23.52;;
44850;SDS011;30583;48.714;9.386;2022-12-18T05:28:07;56.38;;;24.02;;
44850;SDS011;30583;48.714;9.386;2022-12-18T05:30:33;60.10;;;25.05;;
44850;SDS011;30583;48.714;9.386;2022-12-18T05:32:58;54.45;;;24.10;;
44850;SDS011;30583;48.714;9.386;2022-12-18T05:35:24;55.17;;;23.65;;
44850;SDS011;30583;48.714;9.386;2022-12-18T05:37:49;52.05;;;22.30;;
44850;SDS011;30583;48.714;9.386;2022-12-18T05:40:15;54.13;;;23.65;;
44850;SDS011;30583;48.714;9.386;2022-12-18T05:42:40;59.10;;;24.75;;
44850;SDS011;30583;48.714;9.386;2022-12-18T05:45:06;50.30;;;22.67;;
44850;SDS011;30583;48.714;9.386;2022-12-18T05:47:32;49.75;;;22.95;;
44850;SDS011;30583;48.714;9.386;2022-12-18T05:49:58;54.72;;;23.77;;
44850;SDS011;30583;48.714;9.386;2022-12-18T05:52:23;54.38;;;24.27;;
44850;SDS011;30583;48.714;9.386;2022-12-18T05:54:49;54.50;;;23.02;;
44850;SDS011;30583;48.714;9.386;2022-12-18T05:57:15;55.10;;;23.45;;
44850;SDS011;30583;48.714;9.386;2022-12-18T05:59:40;49.47;;;22.83;;
44850;SDS011;30583;48.714;9.386;2022-12-18T06:02:06;54.03;;;24.73;;
44850;SDS011;30583;48.714;9.386;2022-12-18T06:04:31;54.38;;;22.45;;
44850;SDS011;30583;48.714;9.386;2022-12-18T06:06:57;51.45;;;24.17;;
44850;SDS011;30583;48.714;9.386;2022-12-18T06:09:23;53.28;;;23.90;;
44850;SDS011;30583;48.714;9.386;2022-12-18T06:11:49;52.58;;;24.25;;
44850;SDS011;30583;48.714;9.386;2022-12-18T06:14:16;55.22;;;24.23;;
44850;SDS011;30583;48.714;9.386;2022-12-18T06:16:42;50.42;;;22.92;;
44850;SDS011;30583;48.714;9.386;2022-12-18T06:19:12;59.03;;;25.67;;
44850;SDS011;30583;48.714;9.386;2022-12-18T06:21:40;55.80;;;26.45;;
44850;SDS011;30583;48.714;9.386;2022-12-18T06:24:05;58.13;;;24.33;;
44850;SDS011;30583;48.714;9.386;2022-12-18T06:26:31;60.83;;;26.13;;
44850;SDS011;30583;48.714;9.386;2022-12-18T06:28:57;63.33;;;26.70;;
44850;SDS011;30583;48.714;9.386;2022-12-18T06:31:22;54.95;;;25.00;;
44850;SDS011;30583;48.714;9.386;2022-12-18T06:33:48;54.90;;;23.67;;
44850;SDS011;30583;48.714;9.386;2022-12-18T06:36:14;56.17;;;23.25;;
44850;SDS011;30583;48.714;9.386;2022-12-18T06:38:40;95.78;;;36.03;;
44850;SDS011;30583;48.714;9.386;2022-12-18T06:41:08;980.70;;;328.70;;
44850;SDS011;30583;48.714;9.386;2022-12-18T06:43:35;1999.90;;;802.60;;
44850;SDS011;30583;48.714;9.386;2022-12-18T06:46:01;1189.30;;;410.38;;
44850;SDS011;30583;48.714;9.386;2022-12-18T06:48:28;133.40;;;50.55;;
44850;SDS011;30583;48.714;9.386;2022-12-18T06:50:54;74.85;;;29.48;;
44850;SDS011;30583;48.714;9.386;2022-12-18T06:53:20;60.75;;;26.13;;
44850;SDS011;30583;48.714;9.386;2022-12-18T06:55:45;57.72;;;25.45;;
44850;SDS011;30583;48.714;9.386;2022-12-18T06:58:11;57.88;;;24.83;;
44850;SDS011;30583;48.714;9.386;2022-12-18T07:00:36;56.45;;;25.52;;
44850;SDS011;30583;48.714;9.386;2022-12-18T07:03:02;58.85;;;27.30;;
44850;SDS011;30583;48.714;9.386;2022-12-18T07:05:27;72.60;;;33.67;;
44850;SDS011;30583;48.714;9.386;2022-12-18T07:07:53;58.17;;;26.88;;
44850;SDS011;30583;48.714;9.386;2022-12-18T07:10:19;58.63;;;27.58;;
44850;SDS011;30583;48.714;9.386;2022-12-18T07:12:45;56.15;;;27.48;;
44850;SDS011;30583;48.714;9.386;2022-12-18T07:15:10;75.07;;;40.83;;
44850;SDS011;30583;48.714;9.386;2022-12-18T07:17:36;60.92;;;28.40;;
44850;SDS011;30583;48.714;9.386;2022-12-18T07:20:01;59.50;;;27.42;;
44850;SDS011;30583;48.714;9.386;2022-12-18T07:22:28;69.45;;;29.30;;
44850;SDS011;30583;48.714;9.386;2022-12-18T07:24:54;68.25;;;28.15;;
44850;SDS011;30583;48.714;9.386;2022-12-18T07:27:20;163.85;;;64.43;;
44850;SDS011;30583;48.714;9.386;2022-12-18T07:29:46;100.40;;;46.95;;
44850;SDS011;30583;48.714;9.386;2022-12-18T07:32:11;56.03;;;27.23;;
44850;SDS011;30583;48.714;9.386;2022-12-18T07:34:37;60.78;;;25.98;;
44850;SDS011;30583;48.714;9.386;2022-12-18T07:37:02;61.95;;;27.55;;
44850;SDS011;30583;48.714;9.386;2022-12-18T07:39:28;75.60;;;35.40;;
44850;SDS011;30583;48.714;9.386;2022-12-18T07:41:53;60.88;;;30.65;;
44850;SDS011;30583;48.714;9.386;2022-12-18T07:44:38;52.70;;;26.08;;
44850;SDS011;30583;48.714;9.386;2022-12-18T07:47:04;52.45;;;24.60;;
44850;SDS011;30583;48.714;9.386;2022-12-18T07:49:29;52.15;;;23.48;;
44850;SDS011;30583;48.714;9.386;2022-12-18T07:51:55;129.75;;;43.05;;
44850;SDS011;30583;48.714;9.386;2022-12-18T07:54:22;96.65;;;37.22;;
44850;SDS011;30583;48.714;9.386;2022-12-18T07:56:48;58.42;;;26.73;;
44850;SDS011;30583;48.714;9.386;2022-12-18T07:59:14;52.28;;;21.98;;
44850;SDS011;30583;48.714;9.386;2022-12-18T08:01:39;46.38;;;20.65;;
44850;SDS011;30583;48.714;9.386;2022-12-18T08:04:05;49.83;;;24.60;;
44850;SDS011;30583;48.714;9.386;2022-12-18T08:06:31;52.47;;;22.63;;
44850;SDS011;30583;48.714;9.386;2022-12-18T08:08:56;56.70;;;29.02;;
44850;SDS011;30583;48.714;9.386;2022-12-18T08:11:23;54.47;;;25.75;;
44850;SDS011;30583;48.714;9.386;2022-12-18T08:13:50;54.72;;;24.80;;
44850;SDS011;30583;48.714;9.386;2022-12-18T08:16:16;50.95;;;23.77;;
44850;SDS011;30583;48.714;9.386;2022-12-18T08:18:42;55.33;;;23.40;;
44850;SDS011;30583;48.714;9.386;2022-12-18T08:21:11;46.60;;;23.42;;
44850;SDS011;30583;48.714;9.386;2022-12-18T08:23:42;53.67;;;25.73;;
44850;SDS011;30583;48.714;9.386;2022-12-18T08:26:08;75.03;;;42.60;;
44850;SDS011;30583;48.714;9.386;2022-12-18T08:28:34;104.45;;;60.13;;
44850;SDS011;30583;48.714;9.386;2022-12-18T08:31:00;91.25;;;53.05;;
44850;SDS011;30583;48.714;9.386;2022-12-18T08:33:25;68.68;;;36.42;;
44850;SDS011;30583;48.714;9.386;2022-12-18T08:35:52;63.40;;;31.42;;
44850;SDS011;30583;48.714;9.386;2022-12-18T08:38:18;58.70;;;28.75;;
44850;SDS011;30583;48.714;9.386;2022-12-18T08:40:43;81.97;;;42.95;;
44850;SDS011;30583;48.714;9.386;2022-12-18T08:43:09;67.55;;;36.03;;
44850;SDS011;30583;48.714;9.386;2022-12-18T08:45:54;187.80;;;109.07;;
44850;SDS011;30583;48.714;9.386;2022-12-18T08:48:20;169.68;;;91.57;;
44850;SDS011;30583;48.714;9.386;2022-12-18T08:51:07;70.78;;;34.08;;
44850;SDS011;30583;48.714;9.386;2022-12-18T08:53:34;158.05;;;90.63;;
44850;SDS011;30583;48.714;9.386;2022-12-18T08:56:00;157.43;;;88.03;;
44850;SDS011;30583;48.714;9.386;2022-12-18T08:58:26;73.38;;;35.80;;
44850;SDS011;30583;48.714;9.386;2022-12-18T09:00:52;63.70;;;28.58;;
44850;SDS011;30583;48.714;9.386;2022-12-18T09:03:17;52.47;;;24.27;;
44850;SDS011;30583;48.714;9.386;2022-12-18T09:05:45;58.70;;;28.42;;
44850;SDS011;30583;48.714;9.386;2022-12-18T09:08:11;59.88;;;27.08;;
44850;SDS011;30583;48.714;9.386;2022-12-18T09:10:47;56.80;;;28.67;;
44850;SDS011;30583;48.714;9.386;2022-12-18T09:13:15;129.68;;;63.72;;
44850;SDS011;30583;48.714;9.386;2022-12-18T09:15:42;117.75;;;58.88;;
44850;SDS011;30583;48.714;9.386;2022-12-18T09:18:10;84.10;;;40.78;;
44850;SDS011;30583;48.714;9.386;2022-12-18T09:20:37;71.93;;;33.67;;
44850;SDS011;30583;48.714;9.386;2022-12-18T09:23:03;69.30;;;32.65;;
44850;SDS011;30583;48.714;9.386;2022-12-18T09:25:30;65.90;;;31.55;;
44850;SDS011;30583;48.714;9.386;2022-12-18T09:28:01;73.63;;;36.47;;
44850;SDS011;30583;48.714;9.386;2022-12-18T09:30:27;64.85;;;31.10;;
44850;SDS011;30583;48.714;9.386;2022-12-18T09:32:52;64.05;;;28.65;;
44850;SDS011;30583;48.714;9.386;2022-12-18T09:35:18;61.53;;;28.35;;
44850;SDS011;30583;48.714;9.386;2022-12-18T09:37:44;67.78;;;30.58;;
44850;SDS011;30583;48.714;9.386;2022-12-18T09:40:13;72.13;;;31.48;;
44850;SDS011;30583;48.714;9.386;2022-12-18T09:42:45;55.20;;;26.88;;
44850;SDS011;30583;48.714;9.386;2022-12-18T09:45:15;61.55;;;27.33;;
44850;SDS011;30583;48.714;9.386;2022-12-18T09:47:41;57.95;;;27.88;;
44850;SDS011;30583;48.714;9.386;2022-12-18T09:52:59;59.10;;;29.00;;
44850;SDS011;30583;48.714;9.386;2022-12-18T09:55:34;55.70;;;26.58;;
44850;SDS011;30583;48.714;9.386;2022-12-18T10:00:45;69.05;;;31.00;;
44850;SDS011;30583;48.714;9.386;2022-12-18T10:03:14;59.22;;;29.52;;
44850;SDS011;30583;48.714;9.386;2022-12-18T10:05:59;65.60;;;29.88;;
44850;SDS011;30583;48.714;9.386;2022-12-18T10:11:03;58.15;;;29.90;;
44850;SDS011;30583;48.714;9.386;2022-12-18T10:14:03;59.67;;;34.17;;
44850;SDS011;30583;48.714;9.386;2022-12-18T10:16:47;56.90;;;28.52;;
44850;SDS011;30583;48.714;9.386;2022-12-18T10:19:33;54.50;;;29.95;;
44850;SDS011;30583;48.714;9.386;2022-12-18T10:27:28;68.43;;;34.00;;
44850;SDS011;30583;48.714;9.386;2022-12-18T10:29:55;64.65;;;32.90;;
44850;SDS011;30583;48.714;9.386;2022-12-18T10:32:22;62.65;;;33.25;;
44850;SDS011;30583;48.714;9.386;2022-12-18T10:34:54;61.83;;;33.00;;
44850;SDS011;30583;48.714;9.386;2022-12-18T10:37:22;56.90;;;30.17;;
44850;SDS011;30583;48.714;9.386;2022-12-18T10:42:33;58.23;;;30.93;;
44850;SDS011;30583;48.714;9.386;2022-12-18T10:45:20;61.45;;;30.13;;
44850;SDS011;30583;48.714;9.386;2022-12-18T10:47:46;55.13;;;28.90;;
44850;SDS011;30583;48.714;9.386;2022-12-18T10:50:32;63.67;;;31.05;;
44850;SDS011;30583;48.714;9.386;2022-12-18T10:53:00;60.15;;;31.65;;
44850;SDS011;30583;48.714;9.386;2022-12-18T10:55:31;64.15;;;33.50;;
44850;SDS011;30583;48.714;9.386;2022-12-18T10:58:16;61.42;;;32.03;;
44850;SDS011;30583;48.714;9.386;2022-12-18T11:01:08;60.85;;;33.00;;
44850;SDS011;30583;48.714;9.386;2022-12-18T11:03:37;64.80;;;31.92;;
44850;SDS011;30583;48.714;9.386;2022-12-18T11:06:10;57.08;;;32.15;;
44850;SDS011;30583;48.714;9.386;2022-12-18T11:08:41;60.30;;;34.45;;
44850;SDS011;30583;48.714;9.386;2022-12-18T11:11:21;27.20;;;17.20;;
44850;SDS011;30583;48.714;9.386;2022-12-18T11:14:07;110.68;;;55.17;;
44850;SDS011;30583;48.714;9.386;2022-12-18T11:16:44;162.07;;;73.57;;
44850;SDS011;30583;48.714;9.386;2022-12-18T11:19:17;107.40;;;50.03;;
44850;SDS011;30583;48.714;9.386;2022-12-18T11:22:18;205.13;;;84.57;;
44850;SDS011;30583;48.714;9.386;2022-12-18T11:25:01;573.97;;;280.20;;
44850;SDS011;30583;48.714;9.386;2022-12-18T11:27:32;101.88;;;53.85;;
44850;SDS011;30583;48.714;9.386;2022-12-18T11:30:08;89.03;;;46.85;;
44850;SDS011;30583;48.714;9.386;2022-12-18T11:32:49;73.40;;;38.88;;
44850;SDS011;30583;48.714;9.386;2022-12-18T11:38:38;67.35;;;38.53;;
44850;SDS011;30583;48.714;9.386;2022-12-18T11:40:50;76.95;;;38.28;;
44850;SDS011;30583;48.714;9.386;2022-12-18T11:43:45;71.05;;;36.30;;
44850;SDS011;30583;48.714;9.386;2022-12-18T11:46:24;73.07;;;39.08;;
44850;SDS011;30583;48.714;9.386;2022-12-18T11:51:43;75.35;;;36.47;;
44850;SDS011;30583;48.714;9.386;2022-12-18T11:54:14;63.90;;;36.20;;
44850;SDS011;30583;48.714;9.386;2022-12-18T11:56:46;68.13;;;36.58;;
44850;SDS011;30583;48.714;9.386;2022-12-18T12:01:52;69.50;;;36.92;;
44850;SDS011;30583;48.714;9.386;2022-12-18T12:07:21;66.57;;;37.63;;
44850;SDS011;30583;48.714;9.386;2022-12-18T12:18:01;68.65;;;35.60;;
44850;SDS011;30583;48.714;9.386;2022-12-18T12:20:47;69.05;;;36.17;;
44850;SDS011;30583;48.714;9.386;2022-12-18T12:31:31;72.75;;;39.53;;
44850;SDS011;30583;48.714;9.386;2022-12-18T12:39:36;74.10;;;37.97;;
44850;SDS011;30583;48.714;9.386;2022-12-18T12:42:05;67.65;;;36.92;;
44850;SDS011;30583;48.714;9.386;2022-12-18T12:45:05;64.88;;;35.33;;
44850;SDS011;30583;48.714;9.386;2022-12-18T12:47:39;69.80;;;36.97;;
44850;SDS011;30583;48.714;9.386;2022-12-18T12:50:11;66.13;;;35.28;;
44850;SDS011;30583;48.714;9.386;2022-12-18T12:52:44;72.32;;;38.53;;
44850;SDS011;30583;48.714;9.386;2022-12-18T12:55:25;70.53;;;39.55;;
44850;SDS011;30583;48.714;9.386;2022-12-18T13:01:10;68.38;;;37.92;;
44850;SDS011;30583;48.714;9.386;2022-12-18T13:09:29;72.00;;;38.40;;
44850;SDS011;30583;48.714;9.386;2022-12-18T13:11:57;68.18;;;37.22;;
44850;SDS011;30583;48.714;9.386;2022-12-18T13:14:46;67.40;;;36.70;;
44850;SDS011;30583;48.714;9.386;2022-12-18T13:20:02;71.38;;;36.63;;
44850;SDS011;30583;48.714;9.386;2022-12-18T13:22:30;67.90;;;35.45;;
44850;SDS011;30583;48.714;9.386;2022-12-18T13:24:59;73.47;;;36.05;;
44850;SDS011;30583;48.714;9.386;2022-12-18T13:35:42;66.25;;;33.97;;
44850;SDS011;30583;48.714;9.386;2022-12-18T13:38:31;56.15;;;30.92;;
44850;SDS011;30583;48.714;9.386;2022-12-18T13:41:02;61.27;;;33.57;;
44850;SDS011;30583;48.714;9.386;2022-12-18T13:43:44;62.65;;;29.67;;
44850;SDS011;30583;48.714;9.386;2022-12-18T13:48:53;65.70;;;33.63;;
44850;SDS011;30583;48.714;9.386;2022-12-18T13:51:43;72.15;;;36.13;;
44850;SDS011;30583;48.714;9.386;2022-12-18T13:54:18;64.90;;;33.60;;
44850;SDS011;30583;48.714;9.386;2022-12-18T13:57:00;55.30;;;31.52;;
44850;SDS011;30583;48.714;9.386;2022-12-18T13:59:32;65.22;;;33.80;;
44850;SDS011;30583;48.714;9.386;2022-12-18T14:02:00;60.60;;;31.83;;
44850;SDS011;30583;48.714;9.386;2022-12-18T14:04:37;58.15;;;30.67;;
44850;SDS011;30583;48.714;9.386;2022-12-18T14:07:07;63.10;;;31.05;;
44850;SDS011;30583;48.714;9.386;2022-12-18T14:09:42;65.50;;;33.35;;
44850;SDS011;30583;48.714;9.386;2022-12-18T14:15:06;56.30;;;28.05;;
44850;SDS011;30583;48.714;9.386;2022-12-18T14:18:00;48.75;;;22.70;;
44850;SDS011;30583;48.714;9.386;2022-12-18T14:20:28;48.38;;;23.33;;
44850;SDS011;30583;48.714;9.386;2022-12-18T14:22:56;53.83;;;25.45;;
44850;SDS011;30583;48.714;9.386;2022-12-18T14:25:23;54.30;;;26.52;;
44850;SDS011;30583;48.714;9.386;2022-12-18T14:28:02;53.33;;;26.27;;
44850;SDS011;30583;48.714;9.386;2022-12-18T14:30:38;48.47;;;24.17;;
44850;SDS011;30583;48.714;9.386;2022-12-18T14:33:08;55.05;;;26.20;;
44850;SDS011;30583;48.714;9.386;2022-12-18T14:35:51;53.83;;;24.50;;
44850;SDS011;30583;48.714;9.386;2022-12-18T14:38:20;59.03;;;30.33;;
44850;SDS011;30583;48.714;9.386;2022-12-18T14:41:00;66.18;;;31.50;;
44850;SDS011;30583;48.714;9.386;2022-12-18T14:43:28;80.28;;;36.72;;
44850;SDS011;30583;48.714;9.386;2022-12-18T14:45:56;103.95;;;53.65;;
44850;SDS011;30583;48.714;9.386;2022-12-18T14:48:32;74.75;;;36.97;;
44850;SDS011;30583;48.714;9.386;2022-12-18T14:51:15;62.55;;;32.97;;
44850;SDS011;30583;48.714;9.386;2022-12-18T14:53:56;69.93;;;33.53;;
44850;SDS011;30583;48.714;9.386;2022-12-18T14:56:28;68.88;;;33.30;;
44850;SDS011;30583;48.714;9.386;2022-12-18T14:59:06;74.35;;;34.00;;
44850;SDS011;30583;48.714;9.386;2022-12-18T15:01:39;81.05;;;35.10;;
44850;SDS011;30583;48.714;9.386;2022-12-18T15:04:24;83.85;;;35.05;;
44850;SDS011;30583;48.714;9.386;2022-12-18T15:07:11;81.80;;;36.67;;
44850;SDS011;30583;48.714;9.386;2022-12-18T15:10:31;68.22;;;29.25;;
44850;SDS011;30583;48.714;9.386;2022-12-18T15:12:47;56.47;;;25.35;;
44850;SDS011;30583;48.714;9.386;2022-12-18T15:18:16;55.20;;;26.13;;
44850;SDS011;30583;48.714;9.386;2022-12-18T15:20:58;59.95;;;24.92;;
44850;SDS011;30583;48.714;9.386;2022-12-18T15:23:36;51.00;;;20.52;;
44850;SDS011;30583;48.714;9.386;2022-12-18T15:26:11;44.88;;;20.35;;
44850;SDS011;30583;48.714;9.386;2022-12-18T15:31:23;45.67;;;23.65;;
44850;SDS011;30583;48.714;9.386;2022-12-18T15:34:08;46.92;;;24.52;;
44850;SDS011;30583;48.714;9.386;2022-12-18T15:36:37;47.92;;;23.83;;
44850;SDS011;30583;48.714;9.386;2022-12-18T15:39:03;45.72;;;23.02;;
44850;SDS011;30583;48.714;9.386;2022-12-18T15:41:30;49.80;;;23.23;;
44850;SDS011;30583;48.714;9.386;2022-12-18T15:44:00;45.25;;;22.02;;
44850;SDS011;30583;48.714;9.386;2022-12-18T15:46:26;46.17;;;22.05;;
44850;SDS011;30583;48.714;9.386;2022-12-18T15:48:56;42.90;;;21.60;;
44850;SDS011;30583;48.714;9.386;2022-12-18T15:53:56;46.28;;;21.33;;
44850;SDS011;30583;48.714;9.386;2022-12-18T15:56:25;43.30;;;21.10;;
44850;SDS011;30583;48.714;9.386;2022-12-18T16:01:39;46.15;;;21.15;;
44850;SDS011;30583;48.714;9.386;2022-12-18T16:04:06;51.65;;;21.52;;
44850;SDS011;30583;48.714;9.386;2022-12-18T16:06:31;48.00;;;21.15;;
44850;SDS011;30583;48.714;9.386;2022-12-18T16:08:57;46.42;;;21.98;;
44850;SDS011;30583;48.714;9.386;2022-12-18T16:11:24;47.20;;;21.20;;
44850;SDS011;30583;48.714;9.386;2022-12-18T16:14:26;51.15;;;21.52;;
44850;SDS011;30583;48.714;9.386;2022-12-18T16:16:57;45.85;;;21.58;;
44850;SDS011;30583;48.714;9.386;2022-12-18T16:19:24;56.15;;;23.52;;
44850;SDS011;30583;48.714;9.386;2022-12-18T16:21:51;49.40;;;22.83;;
44850;SDS011;30583;48.714;9.386;2022-12-18T16:24:37;46.95;;;21.73;;
44850;SDS011;30583;48.714;9.386;2022-12-18T16:27:03;54.22;;;25.67;;
44850;SDS011;30583;48.714;9.386;2022-12-18T16:29:28;53.22;;;24.23;;
44850;SDS011;30583;48.714;9.386;2022-12-18T16:31:54;51.15;;;26.05;;
44850;SDS011;30583;48.714;9.386;2022-12-18T16:34:22;48.88;;;24.38;;
44850;SDS011;30583;48.714;9.386;2022-12-18T16:36:52;50.30;;;23.17;;